createdAt,value
2018-08-23T00:01:34.400Z,20.60
2018-08-23T00:04:12.072Z,20.50
2018-08-23T00:06:50.188Z,20.40
2018-08-23T00:09:20.760Z,20.40
2018-08-23T00:11:51.239Z,20.30
2018-08-23T00:14:21.705Z,20.40
2018-08-23T00:16:52.181Z,20.40
2018-08-23T00:19:22.523Z,20.40
2018-08-23T00:21:52.753Z,20.30
2018-08-23T00:24:24.048Z,20.20
2018-08-23T00:26:55.588Z,20.10
2018-08-23T00:29:27.494Z,20.10
2018-08-23T00:32:02.446Z,20.10
2018-08-23T00:34:35.172Z,20.00
2018-08-23T00:37:06.142Z,20.00
2018-08-23T00:39:36.411Z,19.90
2018-08-23T00:42:08.162Z,20.00
2018-08-23T00:45:02.588Z,20.10
2018-08-23T00:47:33.906Z,20.10
2018-08-23T00:50:04.308Z,20.10
2018-08-23T00:52:43.316Z,20.00
2018-08-23T00:55:22.703Z,19.90
2018-08-23T00:57:53.075Z,19.80
2018-08-23T01:00:24.568Z,19.70
2018-08-23T01:03:03.704Z,19.70
2018-08-23T01:05:39.447Z,19.80
2018-08-23T01:08:10.091Z,19.80
2018-08-23T01:10:41.394Z,19.80
2018-08-23T01:13:12.135Z,19.80
2018-08-23T01:15:44.559Z,19.70
2018-08-23T01:18:18.101Z,19.70
2018-08-23T01:20:49.750Z,19.60
2018-08-23T01:23:20.362Z,19.50
2018-08-23T01:25:51.498Z,19.40
2018-08-23T01:28:22.021Z,19.30
2018-08-23T01:30:52.222Z,19.30
2018-08-23T01:33:23.089Z,19.20
2018-08-23T01:35:53.629Z,19.10
2018-08-23T01:38:24.036Z,19.10
2018-08-23T01:40:59.127Z,19.00
2018-08-23T01:43:29.589Z,19.00
2018-08-23T01:46:00.183Z,18.90
2018-08-23T01:48:30.412Z,18.80
2018-08-23T01:51:01.008Z,18.70
2018-08-23T01:53:36.814Z,18.80
2018-08-23T01:56:07.857Z,18.70
2018-08-23T01:58:38.205Z,18.80
2018-08-23T02:01:17.797Z,18.80
2018-08-23T02:03:48.347Z,18.80
2018-08-23T02:06:18.973Z,18.80
2018-08-23T02:08:49.616Z,18.70
2018-08-23T02:11:20.048Z,18.60
2018-08-23T02:13:50.604Z,18.50
2018-08-23T02:16:21.045Z,18.40
2018-08-23T02:18:51.465Z,18.40
2018-08-23T02:21:22.063Z,18.40
2018-08-23T02:23:53.356Z,18.50
2018-08-23T02:26:24.036Z,18.50
2018-08-23T02:28:54.652Z,18.50
2018-08-23T02:31:25.315Z,18.50
2018-08-23T02:33:56.380Z,18.50
2018-08-23T02:36:26.944Z,18.40
2018-08-23T02:39:02.819Z,18.30
2018-08-23T02:44:44.384Z,18.20
2018-08-23T02:47:15.015Z,18.20
2018-08-23T02:49:44.964Z,18.10
2018-08-23T02:52:14.956Z,18.10
2018-08-23T02:54:44.916Z,18.10
2018-08-23T02:57:14.976Z,18.10
2018-08-23T02:59:46.211Z,18.10
2018-08-23T03:02:16.412Z,18.00
2018-08-23T03:04:46.686Z,18.10
2018-08-23T03:07:17.096Z,18.10
2018-08-23T03:09:47.260Z,18.10
2018-08-23T03:12:19.505Z,18.00
2018-08-23T03:14:49.696Z,18.00
2018-08-23T03:17:53.667Z,18.00
2018-08-23T03:20:23.882Z,17.90
2018-08-23T03:22:55.353Z,17.80
2018-08-23T03:25:26.353Z,17.80
2018-08-23T03:27:56.923Z,17.70
2018-08-23T03:30:27.294Z,17.70
2018-08-23T03:32:57.529Z,17.70
2018-08-23T03:35:28.131Z,17.60
2018-08-23T03:37:58.558Z,17.60
2018-08-23T03:40:29.198Z,17.60
2018-08-23T03:42:59.316Z,17.50
2018-08-23T03:45:29.375Z,17.50
2018-08-23T03:47:59.423Z,17.50
2018-08-23T03:50:29.434Z,17.50
2018-08-23T03:52:59.468Z,17.50
2018-08-23T03:55:29.955Z,17.40
2018-08-23T03:58:02.495Z,17.50
2018-08-23T04:00:37.477Z,17.50
2018-08-23T04:03:13.368Z,17.50
2018-08-23T04:05:51.249Z,17.40
2018-08-23T04:08:21.316Z,17.50
2018-08-23T04:10:51.536Z,17.60
2018-08-23T04:13:22.085Z,17.70
2018-08-23T04:15:52.361Z,17.80
2018-08-23T04:18:22.605Z,17.80
2018-08-23T04:20:56.779Z,17.90
2018-08-23T04:23:27.264Z,17.90
2018-08-23T04:25:57.534Z,17.80
2018-08-23T04:28:27.872Z,17.80
2018-08-23T04:30:58.186Z,17.80
2018-08-23T04:33:28.596Z,17.70
2018-08-23T04:35:58.612Z,17.80
2018-08-23T04:38:28.670Z,17.90
2018-08-23T04:41:05.531Z,17.90
2018-08-23T04:43:35.967Z,18.00
2018-08-23T04:46:10.096Z,18.00
2018-08-23T04:48:40.059Z,18.10
2018-08-23T04:51:10.055Z,18.20
2018-08-23T04:53:40.213Z,18.20
2018-08-23T04:56:10.382Z,18.20
2018-08-23T04:58:40.632Z,18.30
2018-08-23T05:01:11.298Z,18.30
2018-08-23T05:03:41.578Z,18.40
2018-08-23T05:06:16.935Z,18.40
2018-08-23T05:08:47.569Z,18.50
2018-08-23T05:11:17.516Z,18.50
2018-08-23T05:13:48.206Z,18.60
2018-08-23T05:16:18.774Z,18.70
2018-08-23T05:18:48.836Z,18.80
2018-08-23T05:21:18.872Z,18.90
2018-08-23T05:23:48.928Z,19.00
2018-08-23T05:26:29.976Z,19.10
2018-08-23T05:29:05.756Z,19.20
2018-08-23T05:31:35.828Z,19.40
2018-08-23T05:34:08.166Z,19.70
2018-08-23T05:36:38.193Z,19.90
2018-08-23T05:39:09.364Z,20.10
2018-08-23T05:41:39.369Z,20.30
2018-08-23T05:44:25.166Z,20.40
2018-08-23T05:46:56.616Z,20.50
2018-08-23T05:49:41.414Z,20.80
2018-08-23T05:52:11.459Z,20.90
2018-08-23T05:54:41.470Z,21.10
2018-08-23T05:57:11.557Z,21.30
2018-08-23T05:59:41.591Z,21.40
2018-08-23T06:02:11.610Z,21.60
2018-08-23T06:04:42.982Z,21.70
2018-08-23T06:07:12.874Z,21.90
2018-08-23T06:09:43.490Z,22.10
2018-08-23T06:12:13.504Z,22.30
2018-08-23T06:14:43.344Z,22.50
2018-08-23T06:17:13.406Z,22.70
2018-08-23T06:19:43.390Z,22.70
2018-08-23T06:22:13.393Z,22.70
2018-08-23T06:24:43.478Z,22.70
2018-08-23T06:27:13.419Z,22.70
2018-08-23T06:29:43.324Z,22.60
2018-08-23T06:32:13.793Z,22.60
2018-08-23T06:34:50.643Z,22.60
2018-08-23T06:37:22.251Z,22.70
2018-08-23T06:39:52.235Z,22.70
2018-08-23T06:42:27.239Z,22.90
2018-08-23T06:44:57.255Z,23.10
2018-08-23T06:47:27.910Z,23.30
2018-08-23T06:49:57.927Z,23.50
2018-08-23T06:53:01.801Z,23.70
2018-08-23T06:55:34.344Z,23.90
2018-08-23T06:58:05.058Z,24.20
2018-08-23T07:00:35.025Z,24.30
2018-08-23T07:03:05.923Z,24.40
2018-08-23T07:05:35.985Z,24.40
2018-08-23T07:08:06.429Z,24.50
2018-08-23T07:10:36.326Z,24.60
2018-08-23T07:13:06.488Z,24.60
2018-08-23T07:15:36.489Z,24.70
2018-08-23T07:18:12.163Z,24.80
2018-08-23T07:20:42.170Z,24.80
2018-08-23T07:23:22.863Z,25.00
2018-08-23T07:25:52.930Z,25.00
2018-08-23T07:28:22.895Z,25.00
2018-08-23T07:30:54.716Z,25.10
2018-08-23T07:33:24.732Z,25.20
2018-08-23T07:36:05.546Z,25.20
2018-08-23T07:38:35.568Z,25.40
2018-08-23T07:41:05.575Z,25.40
2018-08-23T07:43:35.641Z,25.60
2018-08-23T07:46:05.666Z,25.70
2018-08-23T07:48:35.866Z,25.80
2018-08-23T07:51:18.762Z,26.00
2018-08-23T07:53:48.733Z,26.10
2018-08-23T07:56:26.605Z,26.30
2018-08-23T07:58:57.751Z,26.40
2018-08-23T08:01:29.367Z,26.50
2018-08-23T08:04:00.188Z,26.70
2018-08-23T08:06:30.275Z,26.80
2018-08-23T08:09:01.368Z,26.90
2018-08-23T08:11:41.146Z,26.90
2018-08-23T08:14:45.703Z,27.00
2018-08-23T08:17:20.773Z,27.20
2018-08-23T08:19:57.829Z,27.30
2018-08-23T08:22:27.803Z,27.40
2018-08-23T08:25:02.030Z,27.50
2018-08-23T08:27:31.997Z,27.60
2018-08-23T08:30:01.951Z,27.80
2018-08-23T08:32:32.029Z,28.00
2018-08-23T08:35:01.940Z,28.10
2018-08-23T08:37:32.408Z,28.30
2018-08-23T08:40:02.451Z,28.50
2018-08-23T08:42:33.827Z,28.60
2018-08-23T08:45:08.966Z,28.80
2018-08-23T08:47:39.296Z,29.10
2018-08-23T08:50:09.326Z,29.30
2018-08-23T08:52:39.362Z,29.80
2018-08-23T08:55:11.175Z,30.20
2018-08-23T08:57:43.181Z,30.60
2018-08-23T09:00:14.075Z,31.00
2018-08-23T09:02:44.144Z,31.40
2018-08-23T09:05:14.074Z,31.60
2018-08-23T09:07:45.509Z,31.60
2018-08-23T09:10:15.795Z,31.60
2018-08-23T09:12:47.842Z,31.50
2018-08-23T09:15:17.922Z,31.20
2018-08-23T09:17:47.895Z,31.00
2018-08-23T09:20:19.763Z,30.90
2018-08-23T09:22:52.128Z,30.80
2018-08-23T09:25:29.207Z,30.70
2018-08-23T09:27:59.113Z,30.80
2018-08-23T09:30:30.365Z,30.90
2018-08-23T09:33:05.355Z,31.20
2018-08-23T09:35:35.628Z,31.40
2018-08-23T09:38:13.829Z,31.60
2018-08-23T09:40:43.738Z,31.70
2018-08-23T09:43:13.665Z,31.80
2018-08-23T09:45:43.714Z,31.90
2018-08-23T09:48:14.368Z,32.00
2018-08-23T09:50:44.416Z,32.20
2018-08-23T09:53:19.319Z,32.30
2018-08-23T09:55:49.408Z,32.20
2018-08-23T09:58:26.001Z,32.30
2018-08-23T10:01:01.204Z,32.40
2018-08-23T10:03:36.373Z,32.20
2018-08-23T10:06:11.532Z,32.20
2018-08-23T10:08:46.524Z,32.40
2018-08-23T10:11:21.691Z,32.50
2018-08-23T10:13:56.686Z,32.80
2018-08-23T10:16:31.705Z,33.10
2018-08-23T10:19:05.753Z,33.20
2018-08-23T10:21:40.791Z,33.50
2018-08-23T10:24:17.149Z,33.50
2018-08-23T10:26:47.575Z,33.40
2018-08-23T10:29:17.620Z,33.50
2018-08-23T10:31:47.555Z,33.50
2018-08-23T10:34:17.607Z,33.50
2018-08-23T10:36:47.548Z,33.50
2018-08-23T10:39:17.448Z,33.30
2018-08-23T10:41:47.557Z,32.70
2018-08-23T10:44:17.653Z,32.00
2018-08-23T10:46:52.636Z,31.70
2018-08-23T10:49:22.651Z,31.40
2018-08-23T10:51:52.634Z,31.30
2018-08-23T10:54:22.566Z,31.20
2018-08-23T10:56:52.540Z,30.90
2018-08-23T10:59:22.498Z,30.50
2018-08-23T11:01:52.603Z,30.10
2018-08-23T11:04:22.555Z,29.80
2018-08-23T11:06:58.497Z,29.60
2018-08-23T11:09:33.485Z,29.50
2018-08-23T11:12:03.430Z,29.40
2018-08-23T11:14:38.499Z,29.20
2018-08-23T11:17:13.930Z,29.10
2018-08-23T11:20:47.717Z,29.00
2018-08-23T11:23:19.147Z,28.90
2018-08-23T11:25:49.103Z,28.70
2018-08-23T11:28:20.954Z,28.50
2018-08-23T11:30:51.731Z,28.50
2018-08-23T11:33:21.645Z,28.40
2018-08-23T11:35:51.617Z,28.40
2018-08-23T11:38:21.616Z,28.40
2018-08-23T11:40:51.457Z,28.40
2018-08-23T11:43:21.465Z,28.40
2018-08-23T11:45:57.749Z,28.50
2018-08-23T11:48:27.757Z,28.60
2018-08-23T11:50:57.809Z,28.60
2018-08-23T11:53:27.981Z,28.70
2018-08-23T11:55:57.818Z,28.70
2018-08-23T11:58:27.694Z,28.80
2018-08-23T12:01:02.843Z,28.90
2018-08-23T12:03:32.724Z,29.00
2018-08-23T12:06:02.819Z,29.10
2018-08-23T12:08:32.839Z,29.20
2018-08-23T12:11:02.766Z,29.30
2018-08-23T12:13:32.743Z,29.50
2018-08-23T12:16:03.932Z,29.50
2018-08-23T12:18:36.528Z,29.60
2018-08-23T12:21:06.870Z,29.80
2018-08-23T12:23:37.034Z,29.80
2018-08-23T12:26:07.126Z,30.00
2018-08-23T12:28:42.057Z,30.20
2018-08-23T12:31:12.148Z,30.30
2018-08-23T12:33:42.185Z,30.50
2018-08-23T12:36:12.814Z,30.70
2018-08-23T12:38:47.946Z,30.90
2018-08-23T12:41:23.124Z,31.00
2018-08-23T12:43:53.189Z,31.00
2018-08-23T12:46:23.185Z,31.00
2018-08-23T12:48:57.231Z,31.00
2018-08-23T12:51:27.210Z,31.20
2018-08-23T12:53:57.228Z,31.40
2018-08-23T12:56:27.274Z,31.40
2018-08-23T12:58:57.178Z,31.60
2018-08-23T13:01:27.161Z,31.80
2018-08-23T13:03:57.188Z,31.90
2018-08-23T13:06:27.109Z,32.00
2018-08-23T13:08:57.138Z,32.00
2018-08-23T13:11:27.054Z,32.00
2018-08-23T13:13:57.049Z,32.00
2018-08-23T13:16:27.155Z,31.90
2018-08-23T13:18:57.019Z,31.80
2018-08-23T13:21:26.917Z,31.80
2018-08-23T13:23:56.961Z,31.80
2018-08-23T13:26:32.170Z,31.80
2018-08-23T13:29:02.093Z,31.90
2018-08-23T13:31:32.049Z,31.90
2018-08-23T13:34:02.163Z,32.00
2018-08-23T13:36:32.109Z,32.10
2018-08-23T13:39:02.091Z,32.20
2018-08-23T13:41:32.014Z,32.50
2018-08-23T13:44:02.021Z,32.60
2018-08-23T13:46:31.955Z,32.80
2018-08-23T13:49:02.185Z,32.90
2018-08-23T13:51:32.255Z,33.10
2018-08-23T13:54:02.306Z,33.10
2018-08-23T13:56:32.230Z,33.10
2018-08-23T13:59:02.159Z,33.10
2018-08-23T14:01:32.152Z,33.20
2018-08-23T14:04:02.092Z,33.40
2018-08-23T14:06:32.192Z,33.50
2018-08-23T14:09:02.047Z,33.80
2018-08-23T14:11:31.972Z,34.00
2018-08-23T14:14:02.032Z,33.90
2018-08-23T14:16:32.009Z,33.70
2018-08-23T14:19:01.979Z,33.60
2018-08-23T14:21:31.960Z,33.50
2018-08-23T14:24:01.961Z,33.40
2018-08-23T14:26:31.909Z,33.40
2018-08-23T14:29:01.884Z,33.30
2018-08-23T14:31:31.852Z,33.30
2018-08-23T14:34:01.916Z,33.30
2018-08-23T14:36:31.784Z,33.20
2018-08-23T14:39:01.798Z,33.20
2018-08-23T14:41:31.854Z,33.20
2018-08-23T14:44:01.850Z,33.20
2018-08-23T14:46:37.033Z,33.10
2018-08-23T14:49:06.918Z,32.90
2018-08-23T14:51:36.905Z,32.90
2018-08-23T14:54:11.969Z,32.90
2018-08-23T14:56:46.832Z,33.00
2018-08-23T14:59:16.788Z,33.30
2018-08-23T15:01:46.664Z,33.60
2018-08-23T15:04:16.755Z,33.90
2018-08-23T15:06:46.686Z,34.20
2018-08-23T15:09:16.747Z,34.40
2018-08-23T15:11:46.687Z,34.60
2018-08-23T15:14:16.683Z,34.50
2018-08-23T15:16:46.514Z,34.40
2018-08-23T15:19:16.719Z,34.20
2018-08-23T15:21:46.619Z,33.90
2018-08-23T15:24:16.654Z,33.70
2018-08-23T15:26:51.268Z,33.50
2018-08-23T15:29:21.136Z,33.30
2018-08-23T15:31:51.173Z,33.00
2018-08-23T15:34:21.122Z,32.90
2018-08-23T15:36:51.160Z,32.60
2018-08-23T15:39:21.139Z,32.50
2018-08-23T15:41:51.179Z,32.40
2018-08-23T15:44:21.172Z,32.30
2018-08-23T15:46:51.130Z,32.30
2018-08-23T15:49:21.108Z,32.30
2018-08-23T15:51:51.035Z,32.10
2018-08-23T15:54:26.780Z,32.20
2018-08-23T15:56:56.740Z,32.20
2018-08-23T15:59:26.836Z,32.20
2018-08-23T16:01:56.736Z,32.00
2018-08-23T16:04:26.956Z,31.90
2018-08-23T16:06:57.075Z,31.70
2018-08-23T16:12:51.082Z,31.50
2018-08-23T16:15:21.664Z,31.40
2018-08-23T16:17:56.908Z,31.30
2018-08-23T16:20:32.043Z,31.20
2018-08-23T16:23:02.111Z,31.10
2018-08-23T16:28:43.924Z,30.90
2018-08-23T16:31:13.976Z,30.90
2018-08-23T16:33:43.985Z,30.80
2018-08-23T16:36:14.075Z,30.70
2018-08-23T16:38:44.409Z,30.60
2018-08-23T16:41:14.383Z,30.50
2018-08-23T16:43:45.224Z,30.50
2018-08-23T16:46:15.127Z,30.40
2018-08-23T16:48:45.091Z,30.30
2018-08-23T16:51:15.202Z,30.20
2018-08-23T16:53:45.684Z,30.10
2018-08-23T16:56:15.635Z,30.00
2018-08-23T16:58:45.921Z,29.80
2018-08-23T17:01:15.956Z,29.60
2018-08-23T17:03:54.906Z,29.40
2018-08-23T17:09:18.838Z,28.80
2018-08-23T17:11:49.955Z,28.60
2018-08-23T17:14:19.951Z,28.40
2018-08-23T17:16:54.987Z,28.30
2018-08-23T17:19:25.032Z,28.10
2018-08-23T17:21:54.920Z,28.00
2018-08-23T17:24:25.337Z,27.90
2018-08-23T17:26:56.833Z,27.70
2018-08-23T17:29:27.164Z,27.60
2018-08-23T17:32:15.240Z,27.50
2018-08-23T17:34:45.219Z,27.40
2018-08-23T17:37:15.177Z,27.30
2018-08-23T17:39:45.199Z,27.20
2018-08-23T17:42:20.732Z,27.10
2018-08-23T17:45:13.640Z,27.00
2018-08-23T17:47:43.779Z,26.90
2018-08-23T17:50:13.789Z,26.70
2018-08-23T17:52:44.176Z,26.60
2018-08-23T17:55:14.392Z,26.50
2018-08-23T18:00:47.576Z,26.40
2018-08-23T18:03:18.355Z,26.30
2018-08-23T18:05:52.935Z,26.30
2018-08-23T18:08:22.963Z,26.10
2018-08-23T18:10:53.064Z,26.00
2018-08-23T18:13:23.118Z,25.90
2018-08-23T18:15:58.101Z,25.80
2018-08-23T18:18:29.060Z,25.80
2018-08-23T18:20:59.280Z,25.60
2018-08-23T18:23:29.430Z,25.40
2018-08-23T18:28:59.646Z,25.30
2018-08-23T18:31:29.655Z,25.20
2018-08-23T18:33:59.591Z,25.10
2018-08-23T18:36:29.565Z,25.10
2018-08-23T18:38:59.477Z,25.00
2018-08-23T18:41:29.714Z,25.00
2018-08-23T18:43:59.658Z,24.90
2018-08-23T18:46:29.676Z,24.90
2018-08-23T18:49:00.428Z,24.80
2018-08-23T18:51:31.426Z,24.80
2018-08-23T18:54:01.731Z,24.70
2018-08-23T18:56:31.797Z,24.70
2018-08-23T18:59:01.715Z,24.60
2018-08-23T19:01:31.772Z,24.60
2018-08-23T19:04:01.751Z,24.60
2018-08-23T19:06:37.817Z,24.50
2018-08-23T19:09:09.702Z,24.40
2018-08-23T19:11:39.694Z,24.40
2018-08-23T19:14:09.644Z,24.30
2018-08-23T19:16:44.779Z,24.20
2018-08-23T19:19:14.765Z,24.20
2018-08-23T19:21:44.780Z,24.20
2018-08-23T19:24:14.699Z,24.20
2018-08-23T19:26:44.846Z,24.20
2018-08-23T19:29:15.984Z,24.20
2018-08-23T19:31:45.993Z,24.20
2018-08-23T19:34:16.004Z,24.20
2018-08-23T19:37:08.193Z,24.10
2018-08-23T19:39:56.470Z,24.00
2018-08-23T19:42:28.430Z,24.00
2018-08-23T19:45:16.500Z,24.00
2018-08-23T19:47:51.411Z,23.90
2018-08-23T19:50:21.340Z,23.80
2018-08-23T19:52:51.390Z,23.80
2018-08-23T19:55:21.365Z,23.70
2018-08-23T19:57:51.311Z,23.70
2018-08-23T20:00:21.348Z,23.70
2018-08-23T20:02:51.274Z,23.70
2018-08-23T20:05:21.243Z,23.70
2018-08-23T20:07:51.147Z,23.60
2018-08-23T20:10:23.201Z,23.60
2018-08-23T20:12:53.184Z,23.50
2018-08-23T20:15:26.367Z,23.50
2018-08-23T20:17:57.393Z,23.50
2018-08-23T20:20:27.461Z,23.40
2018-08-23T20:22:57.446Z,23.30
2018-08-23T20:25:27.677Z,23.30
2018-08-23T20:27:57.716Z,23.20
2018-08-23T20:30:27.801Z,23.20
2018-08-23T20:32:57.717Z,23.20
2018-08-23T20:35:27.689Z,23.10
2018-08-23T20:37:58.755Z,23.10
2018-08-23T20:40:28.741Z,23.00
2018-08-23T20:42:58.759Z,23.00
2018-08-23T20:45:28.755Z,22.90
2018-08-23T20:47:58.779Z,23.00
2018-08-23T20:50:28.808Z,22.90
2018-08-23T20:52:58.855Z,22.90
2018-08-23T20:55:29.208Z,22.90
2018-08-23T20:57:59.158Z,22.90
2018-08-23T21:00:29.060Z,22.90
2018-08-23T21:02:58.998Z,22.90
2018-08-23T21:05:28.972Z,22.90
2018-08-23T21:07:58.967Z,22.90
2018-08-23T21:10:28.927Z,22.90
2018-08-23T21:12:58.896Z,22.90
2018-08-23T21:15:28.838Z,22.90
2018-08-23T21:17:58.852Z,22.90
2018-08-23T21:20:28.716Z,22.90
2018-08-23T21:22:58.709Z,22.80
2018-08-23T21:25:28.555Z,22.80
2018-08-23T21:27:58.539Z,22.80
2018-08-23T21:30:28.793Z,22.80
2018-08-23T21:32:58.860Z,22.80
2018-08-23T21:35:28.772Z,22.80
2018-08-23T21:37:58.790Z,22.80
2018-08-23T21:40:28.780Z,22.80
2018-08-23T21:42:58.856Z,22.80
2018-08-23T21:45:28.797Z,22.70
2018-08-23T21:47:59.500Z,22.70
2018-08-23T21:50:29.422Z,22.70
2018-08-23T21:52:59.411Z,22.70
2018-08-23T21:55:34.406Z,22.70
2018-08-23T21:58:06.492Z,22.70
2018-08-23T22:00:41.671Z,22.80
2018-08-23T22:03:13.445Z,22.90
2018-08-23T22:05:43.619Z,22.90
2018-08-23T22:08:13.508Z,22.90
2018-08-23T22:10:43.547Z,22.90
2018-08-23T22:13:13.648Z,22.90
2018-08-23T22:15:49.580Z,22.80
2018-08-23T22:18:20.121Z,22.70
2018-08-23T22:20:50.077Z,22.50
2018-08-23T22:23:20.060Z,22.40
2018-08-23T22:25:50.038Z,22.40
2018-08-23T22:28:19.924Z,22.30
2018-08-23T22:30:49.850Z,22.20
2018-08-23T22:33:20.648Z,22.10
2018-08-23T22:35:50.744Z,22.20
2018-08-23T22:38:20.785Z,22.10
2018-08-23T22:40:50.779Z,22.20
2018-08-23T22:43:20.740Z,22.10
2018-08-23T22:45:50.738Z,22.10
2018-08-23T22:48:20.710Z,22.10
2018-08-23T22:50:50.730Z,22.00
2018-08-23T22:53:20.730Z,22.00
2018-08-23T22:55:50.785Z,21.90
2018-08-23T22:58:20.718Z,21.80
2018-08-23T23:00:50.758Z,21.80
2018-08-23T23:03:26.665Z,21.60
2018-08-23T23:05:56.885Z,21.60
2018-08-23T23:08:26.750Z,21.50
2018-08-23T23:10:56.679Z,21.40
2018-08-23T23:13:26.759Z,21.40
2018-08-23T23:15:56.717Z,21.30
2018-08-23T23:18:26.698Z,21.20
2018-08-23T23:20:56.644Z,21.10
2018-08-23T23:23:26.528Z,21.10
2018-08-23T23:25:56.442Z,21.10
2018-08-23T23:28:26.407Z,21.10
2018-08-23T23:30:56.270Z,21.10
2018-08-23T23:33:26.167Z,21.20
2018-08-23T23:35:56.180Z,21.20
2018-08-23T23:38:26.011Z,21.20
2018-08-23T23:40:55.943Z,21.10
2018-08-23T23:43:26.204Z,21.10
2018-08-23T23:45:56.156Z,21.10
2018-08-23T23:48:27.183Z,21.00
2018-08-23T23:50:57.176Z,21.00
2018-08-23T23:53:27.206Z,21.00
2018-08-23T23:55:57.289Z,21.00
2018-08-23T23:58:27.397Z,21.00
